This is the latest recevied weather packets stored in our database for station/object CE3MXM-13. If no packets are shown the sender has not sent any weather packets the latest 1 day(s).
| Time | Temp. | Humidity | Pressure | Rain* | Wind** | Luminosity | Snow |
|---|---|---|---|---|---|---|---|
| 1778007009 | 21.67° C | 48% | 1008.9 hPa | - | 0.45 m/s, 131° | - | - |
| 1778006708 | 21.67° C | 47% | 1008.7 hPa | - | 0 m/s | - | - |
| 1778006408 | 21.67° C | 47% | 1008.5 hPa | - | 1.79 m/s, 324° | - | - |
| 1778006108 | 21.67° C | 47% | 1008.6 hPa | - | 0.89 m/s, 298° | - | - |
| 1778005807 | 22.22° C | 46% | 1008.6 hPa | - | 0 m/s | - | - |
| 1778005508 | 22.22° C | 45% | 1008.7 hPa | - | 0 m/s | - | - |
| 1778005208 | 22.22° C | 45% | 1008.5 hPa | - | 0 m/s | - | - |
| 1778004907 | 22.22° C | 46% | 1008.7 hPa | - | 1.34 m/s, 130° | - | - |
| 1778004607 | 22.22° C | 45% | 1008.5 hPa | - | 0.89 m/s, 199° | - | - |
| 1778004307 | 22.22° C | 45% | 1008.3 hPa | - | 0.89 m/s, 165° | - | - |
| 1778004007 | 22.22° C | 45% | 1008.4 hPa | - | 0 m/s | - | - |
| 1778003707 | 22.22° C | 43% | 1008.2 hPa | - | 0.89 m/s, 205° | - | - |
| 1778003407 | 22.78° C | 45% | 1008.4 hPa | - | 0.89 m/s, 140° | - | - |
| 1778003107 | 23.33° C | 41% | 1008.4 hPa | - | 2.24 m/s, 168° | - | - |
| 1778002807 | 23.33° C | 43% | 1008.2 hPa | - | 0 m/s | - | - |
| 1778002507 | 22.78° C | 43% | 1008.3 hPa | - | 1.34 m/s, 210° | - | - |
| 1778002207 | 22.78° C | 44% | 1008.4 hPa | - | 2.24 m/s, 157° | - | - |
| 1778001907 | 22.78° C | 41% | 1008.3 hPa | - | 6.26 m/s, 164° | - | - |
| 1778001606 | 22.78° C | 42% | 1008.3 hPa | - | 0.89 m/s, 212° | - | - |
| 1778001306 | 22.78° C | 40% | 1008.3 hPa | - | 1.79 m/s, 172° | - | - |
| 1778001006 | 22.78° C | 40% | 1008.2 hPa | - | 2.24 m/s, 180° | - | - |
| 1778000706 | 22.22° C | 41% | 1008.2 hPa | - | 2.68 m/s, 177° | - | - |
| 1778000406 | 22.22° C | 41% | 1008.2 hPa | - | 1.79 m/s, 182° | - | - |
| 1778000106 | 22.22° C | 43% | 1008 hPa | - | 1.79 m/s, 188° | - | - |
| 1777999806 | 22.78° C | 41% | 1008.2 hPa | - | 2.68 m/s, 166° | - | - |
* Rain since midnight (hover to see other rain measurements)
** Current wind speed in m/s (hover to see current wind gust speed)